Terminal Aerodrome Forecast
Issued by NWS

Home | Current Version | Previous Version | Text Only | Print | Product List | Glossary On
Versions: 1 2 3 4 5 6 7 8 9 10 11 12 13 14 15 16 17 18 19 20 21 22 23 24 25 26 27
000
FTUS45 KGJT 301737
TAFEGE
TAF
KEGE 301737Z 3018/0118 00000KT P6SM BKN200
     FM302000 25010G18KT P6SM VCTS SCT090CB BKN200
     FM010300 10004KT P6SM FEW090 BKN200
     FM011200 VRB03KT P6SM SCT090 BKN200=

USA.gov is the U.S. government's official web portal to all federal, state and local government web resources and services.